createdAt,value
2023-01-09T00:00:53.513Z,32.75
2023-01-09T00:03:20.823Z,29.50
2023-01-09T00:05:47.629Z,28.05
2023-01-09T00:08:14.852Z,27.40
2023-01-09T00:10:42.113Z,29.17
2023-01-09T00:13:12.704Z,30.40
2023-01-09T00:15:41.573Z,23.95
2023-01-09T00:18:09.195Z,24.95
2023-01-09T00:20:36.729Z,24.95
2023-01-09T00:23:04.125Z,23.38
2023-01-09T00:25:30.932Z,27.23
2023-01-09T00:27:58.368Z,35.55
2023-01-09T00:30:25.834Z,35.40
2023-01-09T00:32:54.247Z,26.02
2023-01-09T00:35:23.997Z,30.35
2023-01-09T00:37:50.773Z,29.77
2023-01-09T00:40:19.105Z,27.63
2023-01-09T00:42:53.812Z,28.63
2023-01-09T00:45:29.023Z,27.83
2023-01-09T00:48:02.447Z,27.48
2023-01-09T00:50:33.491Z,30.10
2023-01-09T00:53:03.725Z,29.92
2023-01-09T00:55:31.008Z,31.38
2023-01-09T00:57:57.898Z,31.27
2023-01-09T01:00:25.113Z,31.85
2023-01-09T01:02:51.983Z,27.63
2023-01-09T01:05:37.841Z,29.08
2023-01-09T01:08:14.556Z,34.28
2023-01-09T01:10:42.389Z,28.08
2023-01-09T01:13:09.268Z,29.27
2023-01-09T01:15:39.395Z,30.42
2023-01-09T01:18:07.259Z,31.98
2023-01-09T01:20:34.418Z,34.10
2023-01-09T01:23:01.881Z,29.00
2023-01-09T01:25:28.776Z,33.03
2023-01-09T01:27:55.854Z,27.75
2023-01-09T01:30:24.761Z,26.10
2023-01-09T01:32:52.030Z,33.42
2023-01-09T01:35:19.059Z,30.83
2023-01-09T01:37:46.256Z,29.05
2023-01-09T01:40:13.195Z,32.88
2023-01-09T01:42:49.220Z,26.15
2023-01-09T01:45:15.971Z,24.10
2023-01-09T01:47:58.855Z,27.98
2023-01-09T01:50:40.341Z,27.05
2023-01-09T01:53:14.520Z,26.60
2023-01-09T01:55:55.217Z,25.40
2023-01-09T01:58:22.610Z,25.98
2023-01-09T02:00:50.875Z,25.33
2023-01-09T02:03:21.972Z,28.92
2023-01-09T02:05:49.551Z,27.77
2023-01-09T02:08:17.536Z,29.42
2023-01-09T02:10:45.563Z,29.83
2023-01-09T02:13:13.484Z,28.85
2023-01-09T02:15:56.013Z,31.02
2023-01-09T02:18:35.123Z,26.52
2023-01-09T02:21:15.012Z,30.55
2023-01-09T02:24:40.637Z,32.40
2023-01-09T02:27:35.205Z,28.48
2023-01-09T02:30:33.337Z,29.00
2023-01-09T02:33:06.490Z,28.30
2023-01-09T02:35:45.468Z,28.35
2023-01-09T02:38:34.755Z,27.58
2023-01-09T02:41:09.044Z,28.23
2023-01-09T02:43:35.828Z,29.23
2023-01-09T02:46:02.650Z,26.85
2023-01-09T02:48:30.827Z,27.33
2023-01-09T02:51:17.928Z,28.73
2023-01-09T02:53:52.004Z,29.33
2023-01-09T02:57:06.741Z,27.38
2023-01-09T02:59:47.556Z,27.63
2023-01-09T03:02:38.725Z,30.77
2023-01-09T03:05:36.164Z,32.60
2023-01-09T03:08:07.817Z,31.50
2023-01-09T03:11:02.371Z,33.25
2023-01-09T03:13:42.434Z,31.98
2023-01-09T03:16:13.007Z,36.42
2023-01-09T03:18:41.405Z,29.52
2023-01-09T03:21:10.113Z,30.60
2023-01-09T03:23:47.947Z,30.67
2023-01-09T03:26:15.206Z,27.48
2023-01-09T03:28:42.675Z,29.15
2023-01-09T03:31:10.368Z,24.23
2023-01-09T03:33:37.132Z,24.80
2023-01-09T03:36:04.676Z,25.60
2023-01-09T03:38:31.525Z,23.58
2023-01-09T03:40:58.388Z,24.35
2023-01-09T03:43:25.796Z,24.83
2023-01-09T03:45:55.309Z,25.92
2023-01-09T03:48:30.478Z,22.85
2023-01-09T03:50:58.232Z,27.88
2023-01-09T03:53:27.583Z,24.52
2023-01-09T03:55:57.343Z,23.88
2023-01-09T03:58:25.359Z,22.02
2023-01-09T04:00:57.767Z,25.00
2023-01-09T04:03:24.662Z,21.90
2023-01-09T04:05:54.399Z,24.60
2023-01-09T04:08:21.936Z,21.38
2023-01-09T04:10:50.804Z,20.58
2023-01-09T04:13:18.105Z,23.95
2023-01-09T04:15:45.285Z,23.77
2023-01-09T04:18:12.107Z,23.58
2023-01-09T04:20:39.033Z,21.85
2023-01-09T04:23:06.670Z,23.13
2023-01-09T04:25:33.995Z,22.95
2023-01-09T04:28:01.360Z,29.98
2023-01-09T04:30:28.192Z,22.75
2023-01-09T04:32:55.030Z,23.45
2023-01-09T04:35:22.168Z,21.85
2023-01-09T04:37:49.000Z,21.30
2023-01-09T04:40:17.113Z,22.38
2023-01-09T04:42:43.908Z,21.10
2023-01-09T04:45:11.903Z,21.95
2023-01-09T04:47:39.027Z,22.50
2023-01-09T04:50:06.224Z,21.98
2023-01-09T04:55:08.343Z,22.92
2023-01-09T04:57:35.946Z,23.90
2023-01-09T05:00:04.224Z,22.38
2023-01-09T05:02:31.184Z,23.40
2023-01-09T05:04:58.036Z,21.67
2023-01-09T05:07:24.892Z,24.60
2023-01-09T05:09:52.353Z,25.10
2023-01-09T05:12:19.222Z,24.08
2023-01-09T05:14:46.402Z,25.83
2023-01-09T05:17:13.228Z,23.17
2023-01-09T05:19:40.598Z,27.27
2023-01-09T05:22:07.869Z,24.25
2023-01-09T05:24:35.265Z,24.25
2023-01-09T05:27:02.869Z,25.33
2023-01-09T05:29:30.724Z,28.27
2023-01-09T05:31:58.743Z,26.60
2023-01-09T05:34:25.596Z,25.63
2023-01-09T05:36:54.284Z,26.88
2023-01-09T05:39:24.754Z,25.63
2023-01-09T05:41:53.167Z,29.10
2023-01-09T05:44:22.428Z,28.38
2023-01-09T05:46:50.659Z,25.48
2023-01-09T05:52:05.567Z,27.23
2023-01-09T05:54:32.385Z,27.90
2023-01-09T05:57:05.205Z,25.60
2023-01-09T05:59:33.871Z,23.30
2023-01-09T06:02:01.193Z,25.65
2023-01-09T06:04:30.033Z,28.25
2023-01-09T06:06:57.480Z,28.52
2023-01-09T06:09:24.740Z,25.58
2023-01-09T06:11:51.949Z,26.23
2023-01-09T06:14:18.775Z,27.30
2023-01-09T06:16:45.697Z,26.92
2023-01-09T06:19:12.703Z,27.33
2023-01-09T06:21:41.045Z,24.92
2023-01-09T06:24:08.017Z,25.17
2023-01-09T06:26:35.288Z,24.70
2023-01-09T06:29:02.377Z,23.70
2023-01-09T06:31:29.308Z,22.20
2023-01-09T06:33:56.182Z,23.67
2023-01-09T06:36:23.294Z,23.50
2023-01-09T06:38:50.113Z,24.80
2023-01-09T06:41:17.316Z,21.90
2023-01-09T06:43:44.136Z,21.55
2023-01-09T06:46:11.169Z,25.10
2023-01-09T06:48:37.969Z,23.45
2023-01-09T06:51:04.925Z,25.17
2023-01-09T06:53:31.855Z,21.25
2023-01-09T06:55:59.081Z,21.13
2023-01-09T06:58:25.980Z,20.58
2023-01-09T07:00:53.688Z,22.67
2023-01-09T07:03:22.361Z,21.42
2023-01-09T07:05:49.771Z,22.55
2023-01-09T07:08:16.977Z,24.40
2023-01-09T07:10:44.619Z,22.33
2023-01-09T07:13:12.177Z,23.30
2023-01-09T07:15:39.338Z,21.65
2023-01-09T07:18:06.190Z,21.42
2023-01-09T07:20:33.589Z,19.45
2023-01-09T07:23:00.453Z,22.38
2023-01-09T07:25:27.625Z,21.52
2023-01-09T07:27:54.881Z,23.08
2023-01-09T07:30:21.698Z,21.83
2023-01-09T07:32:48.588Z,20.52
2023-01-09T07:35:15.539Z,19.88
2023-01-09T07:37:42.377Z,24.05
2023-01-09T07:40:10.242Z,21.10
2023-01-09T07:42:37.096Z,22.05
2023-01-09T07:45:04.567Z,23.08
2023-01-09T07:47:32.932Z,23.38
2023-01-09T07:50:01.907Z,21.70
2023-01-09T07:52:30.440Z,21.60
2023-01-09T07:54:59.775Z,24.45
2023-01-09T08:00:14.186Z,25.33
2023-01-09T08:02:41.960Z,24.80
2023-01-09T08:05:13.696Z,22.13
2023-01-09T08:07:41.145Z,24.20
2023-01-09T08:10:08.643Z,21.98
2023-01-09T08:12:35.535Z,23.33
2023-01-09T08:15:02.955Z,22.77
2023-01-09T08:17:29.778Z,24.60
2023-01-09T08:19:57.099Z,23.50
2023-01-09T08:22:24.115Z,24.90
2023-01-09T08:24:51.350Z,21.80
2023-01-09T08:27:18.123Z,24.38
2023-01-09T08:29:44.982Z,28.75
2023-01-09T08:32:11.775Z,29.30
2023-01-09T08:34:38.617Z,30.08
2023-01-09T08:37:07.674Z,30.42
2023-01-09T08:39:36.579Z,26.90
2023-01-09T08:42:22.864Z,24.80
2023-01-09T08:45:08.373Z,25.80
2023-01-09T08:47:35.657Z,24.42
2023-01-09T08:50:04.437Z,25.15
2023-01-09T08:52:31.368Z,23.60
2023-01-09T08:54:58.791Z,26.08
2023-01-09T08:57:25.829Z,23.67
2023-01-09T08:59:53.185Z,22.45
2023-01-09T09:02:20.063Z,24.70
2023-01-09T09:04:48.504Z,21.85
2023-01-09T09:07:15.291Z,23.52
2023-01-09T09:09:42.338Z,24.58
2023-01-09T09:12:09.243Z,21.05
2023-01-09T09:14:55.106Z,21.23
2023-01-09T09:17:22.623Z,20.27
2023-01-09T09:19:49.426Z,20.17
2023-01-09T09:22:16.672Z,20.75
2023-01-09T09:24:43.479Z,19.10
2023-01-09T09:27:10.384Z,18.38
2023-01-09T09:29:37.179Z,18.85
2023-01-09T09:32:04.535Z,17.90
2023-01-09T09:34:31.541Z,17.55
2023-01-09T09:37:01.068Z,19.75
2023-01-09T09:39:28.053Z,19.35
2023-01-09T09:42:43.506Z,19.45
2023-01-09T09:45:15.941Z,19.50
2023-01-09T09:47:51.965Z,17.85
2023-01-09T09:50:46.483Z,19.00
2023-01-09T09:53:27.313Z,18.95
2023-01-09T09:55:54.538Z,18.80
2023-01-09T09:58:39.027Z,19.33
2023-01-09T10:01:08.621Z,18.83
2023-01-09T10:03:47.023Z,20.00
2023-01-09T10:06:34.673Z,17.63
2023-01-09T10:09:14.677Z,16.65
2023-01-09T10:12:14.501Z,19.17
2023-01-09T10:14:41.793Z,17.75
2023-01-09T10:17:23.947Z,18.25
2023-01-09T10:20:30.537Z,18.73
2023-01-09T10:23:10.866Z,18.85
2023-01-09T10:26:05.248Z,16.23
2023-01-09T10:29:07.790Z,18.48
2023-01-09T10:31:41.169Z,16.40
2023-01-09T10:34:14.598Z,17.55
2023-01-09T10:36:51.710Z,18.88
2023-01-09T10:39:27.557Z,17.75
2023-01-09T10:42:20.833Z,16.00
2023-01-09T10:45:02.087Z,17.38
2023-01-09T10:47:40.241Z,19.08
2023-01-09T10:50:22.740Z,15.93
2023-01-09T10:52:52.267Z,17.85
2023-01-09T10:55:36.489Z,20.17
2023-01-09T10:58:11.399Z,23.15
2023-01-09T11:00:39.859Z,20.83
2023-01-09T11:03:10.962Z,20.35
2023-01-09T11:05:37.818Z,21.35
2023-01-09T11:08:14.098Z,19.77
2023-01-09T11:11:02.083Z,19.33
2023-01-09T11:13:34.377Z,17.92
2023-01-09T11:16:22.085Z,18.10
2023-01-09T11:18:58.813Z,17.15
2023-01-09T11:21:36.429Z,17.05
2023-01-09T11:24:21.897Z,17.02
2023-01-09T11:26:51.477Z,16.27
2023-01-09T11:29:21.346Z,19.02
2023-01-09T11:31:59.807Z,16.58
2023-01-09T11:34:33.050Z,17.80
2023-01-09T11:37:11.745Z,18.48
2023-01-09T11:39:41.940Z,15.93
2023-01-09T11:42:41.595Z,17.33
2023-01-09T11:45:14.989Z,15.40
2023-01-09T11:47:41.975Z,17.75
2023-01-09T11:50:17.070Z,16.13
2023-01-09T11:52:44.008Z,17.30
2023-01-09T11:55:18.925Z,15.23
2023-01-09T11:57:45.940Z,13.35
2023-01-09T12:00:37.699Z,8.68
2023-01-09T12:03:14.049Z,7.93
2023-01-09T12:06:22.407Z,6.80
2023-01-09T12:09:12.189Z,7.82
2023-01-09T12:11:55.916Z,5.20
2023-01-09T12:14:58.045Z,7.47
2023-01-09T12:17:43.005Z,7.50
2023-01-09T12:20:16.659Z,7.35
2023-01-09T12:23:05.655Z,7.25
2023-01-09T12:26:14.380Z,5.68
2023-01-09T12:28:59.812Z,5.68
2023-01-09T12:31:51.276Z,5.47
2023-01-09T12:34:30.341Z,6.30
2023-01-09T12:37:29.931Z,5.80
2023-01-09T12:40:06.503Z,5.75
2023-01-09T12:42:42.567Z,4.72
2023-01-09T12:45:33.329Z,5.28
2023-01-09T12:48:23.872Z,5.75
2023-01-09T12:51:01.963Z,5.65
2023-01-09T12:53:37.447Z,6.13
2023-01-09T12:56:09.954Z,5.72
2023-01-09T12:58:44.867Z,5.80
2023-01-09T13:01:18.670Z,5.60
2023-01-09T13:03:50.067Z,5.70
2023-01-09T13:06:19.433Z,5.60
2023-01-09T13:08:53.754Z,4.97
2023-01-09T13:11:24.252Z,4.97
2023-01-09T13:14:19.224Z,5.57
2023-01-09T13:16:53.227Z,5.35
2023-01-09T13:19:42.465Z,5.70
2023-01-09T13:22:14.534Z,4.80
2023-01-09T13:25:04.892Z,5.53
2023-01-09T13:27:36.421Z,5.20
2023-01-09T13:30:22.508Z,7.55
2023-01-09T13:33:08.269Z,6.50
2023-01-09T13:35:46.933Z,6.22
2023-01-09T13:38:19.927Z,6.38
2023-01-09T13:40:46.788Z,6.13
2023-01-09T13:43:17.148Z,6.82
2023-01-09T13:45:50.743Z,6.63
2023-01-09T13:48:24.713Z,6.22
2023-01-09T13:50:55.973Z,7.65
2023-01-09T13:53:27.233Z,5.97
2023-01-09T13:56:03.375Z,5.95
2023-01-09T13:58:31.997Z,5.45
2023-01-09T14:01:22.146Z,5.75
2023-01-09T14:04:24.505Z,5.70
2023-01-09T14:07:21.240Z,7.15
2023-01-09T14:09:53.144Z,6.28
2023-01-09T14:12:21.852Z,5.93
2023-01-09T14:14:49.518Z,6.68
2023-01-09T14:17:27.303Z,6.43
2023-01-09T14:20:00.174Z,5.25
2023-01-09T14:22:46.199Z,6.88
2023-01-09T14:25:26.139Z,7.20
2023-01-09T14:27:58.394Z,7.88
2023-01-09T14:30:30.196Z,6.70
2023-01-09T14:33:20.150Z,6.50
2023-01-09T14:36:13.244Z,7.78
2023-01-09T14:38:48.946Z,6.90
2023-01-09T14:41:15.785Z,6.20
2023-01-09T14:44:06.853Z,7.53
2023-01-09T14:46:39.303Z,7.53
2023-01-09T14:49:38.267Z,7.18
2023-01-09T14:52:32.037Z,7.20
2023-01-09T14:55:01.656Z,6.88
2023-01-09T14:57:29.980Z,7.10
2023-01-09T15:00:18.711Z,6.95
2023-01-09T15:02:47.006Z,6.82
2023-01-09T15:05:24.568Z,6.85
2023-01-09T15:08:04.776Z,6.35
2023-01-09T15:10:35.894Z,6.63
2023-01-09T15:13:07.671Z,5.93
2023-01-09T15:15:36.228Z,5.57
2023-01-09T15:18:07.151Z,5.68
2023-01-09T15:20:34.676Z,5.00
2023-01-09T15:23:04.263Z,5.70
2023-01-09T15:25:40.042Z,4.85
2023-01-09T15:28:27.199Z,5.10
2023-01-09T15:31:03.434Z,4.20
2023-01-09T15:33:31.338Z,5.45
2023-01-09T15:36:02.613Z,5.50
2023-01-09T15:38:32.723Z,5.35
2023-01-09T15:41:04.672Z,5.43
2023-01-09T15:43:32.101Z,5.25
2023-01-09T15:46:00.875Z,5.43
2023-01-09T15:48:34.026Z,6.35
2023-01-09T15:51:05.243Z,6.63
2023-01-09T15:53:35.916Z,5.63
2023-01-09T15:56:08.065Z,6.05
2023-01-09T15:58:37.724Z,8.00
2023-01-09T16:01:35.025Z,6.32
2023-01-09T16:04:13.501Z,5.95
2023-01-09T16:06:51.357Z,6.00
2023-01-09T16:09:26.893Z,5.68
2023-01-09T16:12:00.899Z,5.90
2023-01-09T16:14:38.955Z,5.10
2023-01-09T16:17:12.255Z,5.93
2023-01-09T16:19:50.175Z,7.57
2023-01-09T16:22:32.028Z,6.15
2023-01-09T16:25:01.242Z,7.00
2023-01-09T16:27:31.367Z,6.07
2023-01-09T16:30:00.557Z,7.20
2023-01-09T16:32:37.123Z,6.13
2023-01-09T16:35:07.731Z,6.13
2023-01-09T16:37:34.857Z,7.15
2023-01-09T16:40:18.173Z,7.15
2023-01-09T16:43:02.118Z,7.60
2023-01-09T16:45:40.603Z,7.95
2023-01-09T16:48:20.112Z,7.88
2023-01-09T16:50:47.224Z,6.97
2023-01-09T16:53:22.007Z,11.52
2023-01-09T16:55:49.499Z,9.45
2023-01-09T16:58:22.944Z,8.90
2023-01-09T17:00:49.897Z,8.75
2023-01-09T17:03:17.714Z,10.15
2023-01-09T17:05:44.830Z,9.40
2023-01-09T17:08:27.271Z,9.38
2023-01-09T17:10:55.835Z,10.25
2023-01-09T17:13:23.503Z,9.95
2023-01-09T17:15:52.917Z,10.52
2023-01-09T17:18:22.086Z,9.05
2023-01-09T17:20:52.392Z,9.88
2023-01-09T17:23:23.466Z,9.77
2023-01-09T17:26:12.321Z,8.07
2023-01-09T17:28:43.705Z,9.75
2023-01-09T17:31:13.504Z,9.10
2023-01-09T17:33:41.915Z,9.20
2023-01-09T17:36:34.760Z,10.25
2023-01-09T17:39:02.180Z,9.30
2023-01-09T17:41:31.300Z,8.35
2023-01-09T17:43:59.345Z,8.05
2023-01-09T17:46:33.245Z,8.80
2023-01-09T17:49:03.282Z,7.88
2023-01-09T17:51:30.487Z,11.45
2023-01-09T17:54:00.171Z,10.55
2023-01-09T17:56:34.958Z,9.93
2023-01-09T17:59:05.003Z,10.25
2023-01-09T18:01:32.685Z,10.00
2023-01-09T18:03:59.659Z,8.70
2023-01-09T18:06:26.850Z,8.60
2023-01-09T18:08:55.712Z,10.27
2023-01-09T18:11:24.533Z,8.63
2023-01-09T18:13:56.362Z,7.68
2023-01-09T18:16:26.182Z,8.07
2023-01-09T18:18:54.553Z,7.55
2023-01-09T18:21:23.589Z,8.23
2023-01-09T18:23:50.587Z,8.27
2023-01-09T18:26:22.340Z,8.63
2023-01-09T18:28:52.377Z,7.50
2023-01-09T18:31:22.906Z,7.75
2023-01-09T18:33:54.216Z,9.98
2023-01-09T18:36:24.261Z,9.60
2023-01-09T18:38:53.630Z,8.10
2023-01-09T18:41:21.936Z,8.05
2023-01-09T18:43:53.981Z,8.98
2023-01-09T18:46:24.979Z,9.63
2023-01-09T18:48:56.215Z,8.93
2023-01-09T18:51:25.410Z,10.10
2023-01-09T18:53:52.548Z,9.98
2023-01-09T18:56:20.617Z,12.48
2023-01-09T18:58:49.215Z,10.05
2023-01-09T19:01:17.503Z,11.77
2023-01-09T19:03:45.245Z,12.15
2023-01-09T19:06:13.493Z,11.68
2023-01-09T19:08:40.452Z,12.27
2023-01-09T19:11:07.323Z,13.63
2023-01-09T19:13:36.588Z,11.60
2023-01-09T19:16:05.177Z,14.05
2023-01-09T19:18:38.187Z,13.48
2023-01-09T19:21:16.393Z,13.10
2023-01-09T19:23:44.338Z,13.50
2023-01-09T19:26:17.795Z,12.20
2023-01-09T19:28:46.651Z,13.50
2023-01-09T19:31:14.765Z,13.40
2023-01-09T19:33:41.719Z,12.27
2023-01-09T19:36:09.840Z,12.02
2023-01-09T19:38:36.869Z,14.23
2023-01-09T19:41:13.391Z,11.68
2023-01-09T19:43:44.105Z,13.25
2023-01-09T19:46:14.291Z,13.60
2023-01-09T19:48:43.782Z,12.00
2023-01-09T19:51:12.794Z,13.38
2023-01-09T19:53:40.798Z,13.45
2023-01-09T19:56:19.408Z,12.38
2023-01-09T19:58:52.013Z,14.50
2023-01-09T20:01:27.264Z,15.10
2023-01-09T20:03:56.544Z,14.52
2023-01-09T20:06:25.529Z,16.40
2023-01-09T20:08:57.639Z,17.63
2023-01-09T20:11:28.657Z,21.38
2023-01-09T20:13:56.234Z,21.45
2023-01-09T20:16:28.918Z,18.73
2023-01-09T20:19:03.676Z,19.25
2023-01-09T20:21:31.011Z,21.48
2023-01-09T20:24:01.528Z,20.10
2023-01-09T20:26:29.276Z,19.33
2023-01-09T20:28:57.427Z,22.63
2023-01-09T20:31:28.262Z,17.90
2023-01-09T20:33:55.562Z,19.80
2023-01-09T20:36:27.805Z,17.98
2023-01-09T20:38:55.433Z,18.08
2023-01-09T20:41:23.273Z,21.10
2023-01-09T20:44:11.865Z,21.02
2023-01-09T20:46:41.101Z,25.70
2023-01-09T20:49:11.891Z,21.25
2023-01-09T20:51:47.454Z,19.25
2023-01-09T20:54:15.273Z,21.20
2023-01-09T20:56:42.552Z,18.77
2023-01-09T20:59:18.818Z,17.85
2023-01-09T21:01:46.385Z,18.13
2023-01-09T21:04:13.438Z,17.33
2023-01-09T21:06:44.420Z,18.00
2023-01-09T21:09:11.555Z,16.60
2023-01-09T21:14:25.885Z,17.65
2023-01-09T21:16:55.288Z,16.45
2023-01-09T21:19:23.353Z,14.85
2023-01-09T21:21:53.210Z,18.40
2023-01-09T21:24:20.994Z,18.02
2023-01-09T21:26:47.845Z,16.95
2023-01-09T21:29:20.364Z,14.98
2023-01-09T21:31:48.125Z,14.32
2023-01-09T21:34:19.008Z,15.48
2023-01-09T21:36:50.319Z,13.68
2023-01-09T21:39:25.050Z,14.32
2023-01-09T21:42:24.950Z,15.15
2023-01-09T21:45:10.570Z,13.63
2023-01-09T21:47:37.616Z,12.82
2023-01-09T21:50:20.224Z,10.73
2023-01-09T21:55:25.723Z,12.00
2023-01-09T21:58:20.664Z,12.98
2023-01-09T22:00:49.842Z,15.45
2023-01-09T22:05:48.933Z,12.30
2023-01-09T22:08:15.838Z,10.93
2023-01-09T22:10:42.667Z,12.75
2023-01-09T22:13:18.502Z,11.88
2023-01-09T22:15:52.283Z,12.50
2023-01-09T22:18:19.828Z,10.40
2023-01-09T22:20:46.681Z,11.27
2023-01-09T22:23:13.549Z,11.02
2023-01-09T22:25:42.043Z,11.50
2023-01-09T22:28:10.827Z,10.73
2023-01-09T22:30:41.698Z,12.88
2023-01-09T22:33:11.384Z,11.18
2023-01-09T22:35:40.057Z,11.73
2023-01-09T22:38:07.642Z,12.35
2023-01-09T22:40:34.848Z,13.18
2023-01-09T22:43:01.642Z,11.98
2023-01-09T22:45:29.847Z,11.68
2023-01-09T22:47:57.639Z,12.45
2023-01-09T22:50:25.153Z,13.38
2023-01-09T22:52:52.278Z,12.00
2023-01-09T22:55:19.129Z,13.65
2023-01-09T22:57:45.967Z,13.18
2023-01-09T23:00:14.081Z,13.15
2023-01-09T23:02:41.470Z,13.48
2023-01-09T23:05:24.587Z,13.88
2023-01-09T23:07:51.886Z,14.43
2023-01-09T23:10:22.285Z,12.18
2023-01-09T23:12:50.441Z,11.77
2023-01-09T23:15:40.553Z,12.20
2023-01-09T23:18:08.415Z,12.32
2023-01-09T23:20:35.191Z,13.85
2023-01-09T23:23:02.217Z,12.40
2023-01-09T23:25:29.484Z,11.25
2023-01-09T23:27:56.287Z,12.20
2023-01-09T23:30:23.575Z,12.52
2023-01-09T23:32:51.003Z,13.30
2023-01-09T23:35:17.880Z,12.20
2023-01-09T23:37:44.685Z,12.73
2023-01-09T23:40:13.304Z,12.73
2023-01-09T23:42:59.105Z,11.05
2023-01-09T23:45:25.942Z,10.43
2023-01-09T23:47:53.159Z,10.48
2023-01-09T23:50:19.944Z,11.30
2023-01-09T23:52:46.749Z,12.07
2023-01-09T23:55:14.871Z,10.48
2023-01-09T23:57:42.198Z,10.13
